Austin, Texas
Traffic Map
Current Weather Conditions
Austin, Texas
Clear
Clear
82°
Feels Like: 85°
Wind Chill: 82° Ceiling: Unl
Heat Index: 85° Visibility: 10mi
Dew Point: 69° Wind: 3mph
Humidity: 65% Direction: ° ()
Pressure: 30.05in Gusts: 0mph
Raw Report DataKATT 240551Z AUTO VRB03KT 10SM CLR 28/21 A3005 RMK AO2 SLP159 T02780206 10339 20278 403610239 50003
Traffic Incident Summary
Active as of:
Severity:
Category:
InformationThere was an issue retrieving the traffic information for this location. Please try a different location or try again shortly.
Advertisements
Track Severe Weather on mobile